createdAt,value
2023-01-31T00:00:51.764Z,95764.87
2023-01-31T00:03:27.218Z,95762.75
2023-01-31T00:05:56.355Z,95762.98
2023-01-31T00:08:24.737Z,95755.91
2023-01-31T00:10:54.628Z,95758.61
2023-01-31T00:13:23.627Z,95754.88
2023-01-31T00:15:56.279Z,95757.13
2023-01-31T00:18:26.000Z,95756.52
2023-01-31T00:20:55.019Z,95758.48
2023-01-31T00:23:24.281Z,95756.33
2023-01-31T00:25:53.399Z,95753.77
2023-01-31T00:28:22.689Z,95757.80
2023-01-31T00:30:52.542Z,95762.23
2023-01-31T00:33:23.810Z,95759.23
2023-01-31T00:35:52.972Z,95760.25
2023-01-31T00:38:22.493Z,95760.02
2023-01-31T00:40:53.896Z,95756.98
2023-01-31T00:43:23.018Z,95762.36
2023-01-31T00:45:52.257Z,95760.49
2023-01-31T00:48:22.456Z,95757.08
2023-01-31T00:50:51.614Z,95756.37
2023-01-31T00:53:24.079Z,95755.57
2023-01-31T00:55:54.141Z,95752.54
2023-01-31T00:58:23.707Z,95754.31
2023-01-31T01:00:52.986Z,95746.06
2023-01-31T01:03:22.103Z,95741.56
2023-01-31T01:05:52.613Z,95740.23
2023-01-31T01:08:22.107Z,95740.84
2023-01-31T01:10:51.619Z,95743.23
2023-01-31T01:13:21.194Z,95745.80
2023-01-31T01:15:49.673Z,95747.56
2023-01-31T01:18:20.244Z,95744.27
2023-01-31T01:20:49.799Z,95747.86
2023-01-31T01:23:19.356Z,95744.08
2023-01-31T01:25:52.232Z,95745.23
2023-01-31T01:28:21.749Z,95751.98
2023-01-31T01:30:51.410Z,95747.79
2023-01-31T01:33:23.019Z,95753.14
2023-01-31T01:35:52.597Z,95752.69
2023-01-31T01:38:22.097Z,95752.21
2023-01-31T01:40:51.699Z,95751.08
2023-01-31T01:43:21.234Z,95761.70
2023-01-31T01:45:53.631Z,95768.99
2023-01-31T01:48:23.123Z,95773.38
2023-01-31T01:50:52.804Z,95776.77
2023-01-31T01:53:23.656Z,95779.46
2023-01-31T01:55:56.773Z,95782.53
2023-01-31T01:58:37.900Z,95779.58
2023-01-31T02:01:08.024Z,95783.64
2023-01-31T02:03:38.428Z,95784.02
2023-01-31T02:06:08.048Z,95787.39
2023-01-31T02:08:39.671Z,95794.67
2023-01-31T02:11:09.191Z,95792.23
2023-01-31T02:13:41.527Z,95796.61
2023-01-31T02:16:17.210Z,95800.77
2023-01-31T02:18:47.583Z,95800.08
2023-01-31T02:21:16.714Z,95798.61
2023-01-31T02:24:04.766Z,95806.88
2023-01-31T02:26:52.970Z,95805.35
2023-01-31T02:29:38.093Z,95802.52
2023-01-31T02:32:16.580Z,95803.09
2023-01-31T02:34:49.285Z,95805.36
2023-01-31T02:37:19.268Z,95806.02
2023-01-31T02:39:54.625Z,95803.54
2023-01-31T02:42:32.583Z,95798.98
2023-01-31T02:45:05.552Z,95799.73
2023-01-31T02:47:35.148Z,95807.38
2023-01-31T02:50:16.825Z,95814.16
2023-01-31T02:53:05.692Z,95815.36
2023-01-31T02:56:01.770Z,95806.94
2023-01-31T02:58:36.844Z,95795.89
2023-01-31T03:01:07.956Z,95794.52
2023-01-31T03:03:38.973Z,95801.47
2023-01-31T03:06:34.123Z,95795.23
2023-01-31T03:09:09.149Z,95790.55
2023-01-31T03:11:45.457Z,95790.95
2023-01-31T03:14:15.958Z,95807.34
2023-01-31T03:17:10.841Z,95818.05
2023-01-31T03:19:50.281Z,95829.20
2023-01-31T03:22:27.401Z,95830.69
2023-01-31T03:24:59.778Z,95834.61
2023-01-31T03:27:30.042Z,95831.84
2023-01-31T03:30:05.477Z,95835.27
2023-01-31T03:32:38.950Z,95828.93
2023-01-31T03:35:10.921Z,95831.64
2023-01-31T03:37:58.268Z,95834.94
2023-01-31T03:40:30.025Z,95837.72
2023-01-31T03:43:06.546Z,95837.04
2023-01-31T03:45:36.406Z,95836.94
2023-01-31T03:48:15.323Z,95834.79
2023-01-31T03:50:54.315Z,95840.15
2023-01-31T03:53:29.725Z,95844.46
2023-01-31T03:56:03.393Z,95843.47
2023-01-31T03:58:42.592Z,95847.13
2023-01-31T04:01:13.372Z,95847.12
2023-01-31T04:03:49.829Z,95844.63
2023-01-31T04:06:20.954Z,95850.84
2023-01-31T04:08:55.255Z,95850.67
2023-01-31T04:11:25.913Z,95855.04
2023-01-31T04:13:55.885Z,95856.62
2023-01-31T04:16:25.646Z,95860.20
2023-01-31T04:18:57.368Z,95853.80
2023-01-31T04:21:27.398Z,95862.72
2023-01-31T04:23:57.684Z,95866.02
2023-01-31T04:26:27.777Z,95865.43
2023-01-31T04:28:57.633Z,95861.10
2023-01-31T04:31:27.059Z,95865.24
2023-01-31T04:33:58.692Z,95872.83
2023-01-31T04:36:28.688Z,95873.27
2023-01-31T04:38:58.862Z,95863.23
2023-01-31T04:41:28.163Z,95860.27
2023-01-31T04:43:58.435Z,95856.33
2023-01-31T04:46:28.328Z,95859.23
2023-01-31T04:48:58.315Z,95859.77
2023-01-31T04:51:28.390Z,95860.31
2023-01-31T04:53:58.319Z,95868.61
2023-01-31T04:56:28.147Z,95870.39
2023-01-31T04:58:58.437Z,95864.86
2023-01-31T05:01:28.331Z,95860.36
2023-01-31T05:03:58.513Z,95859.59
2023-01-31T05:06:28.330Z,95854.05
2023-01-31T05:09:01.866Z,95854.96
2023-01-31T05:11:32.680Z,95864.27
2023-01-31T05:14:03.541Z,95879.00
2023-01-31T05:16:33.097Z,95883.41
2023-01-31T05:19:02.277Z,95883.95
2023-01-31T05:21:52.225Z,95887.21
2023-01-31T05:24:25.847Z,95887.27
2023-01-31T05:26:59.164Z,95880.61
2023-01-31T05:29:31.541Z,95879.83
2023-01-31T05:32:02.286Z,95884.61
2023-01-31T05:34:33.682Z,95883.53
2023-01-31T05:37:03.713Z,95880.33
2023-01-31T05:39:32.611Z,95877.95
2023-01-31T05:42:01.936Z,95875.88
2023-01-31T05:44:30.507Z,95873.43
2023-01-31T05:47:01.512Z,95877.88
2023-01-31T05:49:34.394Z,95879.23
2023-01-31T05:52:03.372Z,95883.52
2023-01-31T05:54:32.708Z,95882.97
2023-01-31T05:57:02.596Z,95882.36
2023-01-31T05:59:34.106Z,95886.27
2023-01-31T06:02:03.440Z,95885.72
2023-01-31T06:04:32.143Z,95887.38
2023-01-31T06:07:01.537Z,95894.71
2023-01-31T06:09:30.905Z,95896.05
2023-01-31T06:12:00.176Z,95901.52
2023-01-31T06:14:29.836Z,95904.27
2023-01-31T06:17:00.503Z,95909.15
2023-01-31T06:19:29.990Z,95901.48
2023-01-31T06:21:59.950Z,95900.19
2023-01-31T06:24:29.112Z,95909.78
2023-01-31T06:26:58.284Z,95916.70
2023-01-31T06:29:27.454Z,95922.11
2023-01-31T06:31:56.849Z,95923.71
2023-01-31T06:34:25.347Z,95931.61
2023-01-31T06:36:57.044Z,95937.02
2023-01-31T06:39:27.299Z,95939.20
2023-01-31T06:41:56.597Z,95934.60
2023-01-31T06:44:26.609Z,95934.41
2023-01-31T06:46:57.288Z,95940.42
2023-01-31T06:49:26.908Z,95941.23
2023-01-31T06:51:56.796Z,95943.39
2023-01-31T06:54:26.638Z,95943.45
2023-01-31T06:56:56.333Z,95944.08
2023-01-31T06:59:25.640Z,95938.73
2023-01-31T07:01:55.398Z,95937.85
2023-01-31T07:04:24.989Z,95932.52
2023-01-31T07:06:54.599Z,95933.50
2023-01-31T07:09:24.304Z,95934.36
2023-01-31T07:11:53.601Z,95939.12
2023-01-31T07:14:23.212Z,95934.66
2023-01-31T07:16:52.855Z,95940.70
2023-01-31T07:19:22.125Z,95943.29
2023-01-31T07:21:51.325Z,95959.02
2023-01-31T07:24:20.910Z,95975.85
2023-01-31T07:26:54.601Z,95982.48
2023-01-31T07:29:24.328Z,95980.60
2023-01-31T07:31:55.336Z,95981.09
2023-01-31T07:34:25.340Z,95988.95
2023-01-31T07:36:53.835Z,95989.80
2023-01-31T07:39:24.275Z,95988.33
2023-01-31T07:41:53.367Z,95990.95
2023-01-31T07:44:26.694Z,95996.24
2023-01-31T07:46:56.914Z,95998.69
2023-01-31T07:49:26.397Z,95999.69
2023-01-31T07:51:56.084Z,96005.13
2023-01-31T07:54:25.676Z,96010.02
2023-01-31T07:56:55.179Z,96009.56
2023-01-31T07:59:24.338Z,96014.71
2023-01-31T08:02:13.149Z,96013.36
2023-01-31T08:04:42.392Z,96010.30
2023-01-31T08:07:10.818Z,96008.74
2023-01-31T08:09:44.020Z,96008.56
2023-01-31T08:12:13.124Z,96019.10
2023-01-31T08:14:42.302Z,96024.84
2023-01-31T08:17:13.775Z,96032.71
2023-01-31T08:19:42.993Z,96037.28
2023-01-31T08:22:12.056Z,96036.63
2023-01-31T08:24:41.284Z,96033.23
2023-01-31T08:27:10.602Z,96036.34
2023-01-31T08:29:39.859Z,96036.85
2023-01-31T08:32:09.201Z,96044.05
2023-01-31T08:34:38.503Z,96047.70
2023-01-31T08:37:07.778Z,96042.90
2023-01-31T08:39:37.323Z,96044.89
2023-01-31T08:42:06.888Z,96049.63
2023-01-31T08:44:38.644Z,96046.78
2023-01-31T08:47:09.724Z,96049.76
2023-01-31T08:49:39.619Z,96058.21
2023-01-31T08:52:09.197Z,96066.52
2023-01-31T08:54:38.408Z,96073.87
2023-01-31T08:57:07.761Z,96075.80
2023-01-31T08:59:36.891Z,96078.10
2023-01-31T09:02:08.103Z,96085.04
2023-01-31T09:04:37.772Z,96088.95
2023-01-31T09:07:07.414Z,96087.41
2023-01-31T09:09:36.987Z,96087.97
2023-01-31T09:12:06.565Z,96094.53
2023-01-31T09:14:36.153Z,96095.47
2023-01-31T09:17:05.901Z,96100.23
2023-01-31T09:19:34.336Z,96099.98
2023-01-31T09:22:04.621Z,96101.88
2023-01-31T09:24:34.277Z,96100.14
2023-01-31T09:27:05.780Z,96101.60
2023-01-31T09:29:35.542Z,96100.93
2023-01-31T09:32:05.282Z,96099.61
2023-01-31T09:34:34.827Z,96099.38
2023-01-31T09:37:04.321Z,96108.06
2023-01-31T09:39:34.388Z,96102.80
2023-01-31T09:42:14.219Z,96106.21
2023-01-31T09:44:44.812Z,96106.82
2023-01-31T09:47:17.129Z,96109.30
2023-01-31T09:49:58.993Z,96108.89
2023-01-31T09:52:29.705Z,96106.73
2023-01-31T09:54:59.775Z,96114.75
2023-01-31T09:57:47.751Z,96109.27
2023-01-31T10:00:26.621Z,96100.39
2023-01-31T10:03:14.726Z,96105.64
2023-01-31T10:05:52.048Z,96106.23
2023-01-31T10:08:41.798Z,96109.63
2023-01-31T10:11:15.467Z,96111.23
2023-01-31T10:13:50.362Z,96106.77
2023-01-31T10:16:41.555Z,96105.64
2023-01-31T10:19:15.775Z,96106.61
2023-01-31T10:21:50.869Z,96100.48
2023-01-31T10:24:27.065Z,96107.58
2023-01-31T10:27:02.108Z,96105.90
2023-01-31T10:29:39.360Z,96106.20
2023-01-31T10:32:23.655Z,96102.98
2023-01-31T10:34:56.781Z,96114.35
2023-01-31T10:37:39.625Z,96114.65
2023-01-31T10:40:20.701Z,96121.51
2023-01-31T10:43:00.822Z,96130.64
2023-01-31T10:45:34.332Z,96122.56
2023-01-31T10:48:14.813Z,96119.52
2023-01-31T10:50:51.032Z,96115.64
2023-01-31T10:53:53.751Z,96109.45
2023-01-31T10:56:23.253Z,96108.09
2023-01-31T10:58:53.594Z,96105.11
2023-01-31T11:01:23.181Z,96112.17
2023-01-31T11:03:55.246Z,96107.51
2023-01-31T11:06:25.052Z,96110.37
2023-01-31T11:09:00.595Z,96106.19
2023-01-31T11:11:31.389Z,96101.81
2023-01-31T11:14:05.019Z,96109.39
2023-01-31T11:16:37.035Z,96108.73
2023-01-31T11:19:26.756Z,96104.84
2023-01-31T11:21:56.323Z,96104.44
2023-01-31T11:24:29.275Z,96108.36
2023-01-31T11:27:04.120Z,96108.00
2023-01-31T11:29:43.865Z,96107.10
2023-01-31T11:32:23.231Z,96101.38
2023-01-31T11:34:57.486Z,96111.20
2023-01-31T11:37:28.776Z,96112.94
2023-01-31T11:40:22.932Z,96111.16
2023-01-31T11:42:53.246Z,96117.81
2023-01-31T11:45:23.694Z,96113.20
2023-01-31T11:47:54.011Z,96112.02
2023-01-31T11:50:27.914Z,96115.12
2023-01-31T11:52:58.798Z,96112.07
2023-01-31T11:55:34.852Z,96109.84
2023-01-31T11:58:07.745Z,96111.92
2023-01-31T12:00:44.823Z,96117.93
2023-01-31T12:03:18.569Z,96113.55
2023-01-31T12:05:51.180Z,96126.71
2023-01-31T12:08:36.685Z,96129.79
2023-01-31T12:11:26.320Z,96134.73
2023-01-31T12:14:02.627Z,96133.71
2023-01-31T12:16:32.147Z,96137.66
2023-01-31T12:19:07.901Z,96142.38
2023-01-31T12:22:00.583Z,96142.42
2023-01-31T12:24:40.966Z,96145.55
2023-01-31T12:27:29.759Z,96143.69
2023-01-31T12:29:58.952Z,96151.97
2023-01-31T12:32:50.687Z,96151.64
2023-01-31T12:35:44.073Z,96151.99
2023-01-31T12:38:16.334Z,96151.63
2023-01-31T12:40:51.550Z,96153.40
2023-01-31T12:43:20.664Z,96150.61
2023-01-31T12:45:59.348Z,96151.59
2023-01-31T12:48:37.727Z,96153.45
2023-01-31T12:51:30.481Z,96157.64
2023-01-31T12:54:18.581Z,96152.13
2023-01-31T12:56:50.384Z,96155.06
2023-01-31T12:59:45.437Z,96165.78
2023-01-31T13:02:39.381Z,96167.20
2023-01-31T13:05:12.665Z,96166.86
2023-01-31T13:07:50.665Z,96164.09
2023-01-31T13:10:27.092Z,96166.38
2023-01-31T13:12:57.985Z,96159.05
2023-01-31T13:15:32.798Z,96156.27
2023-01-31T13:18:04.738Z,96161.30
2023-01-31T13:20:46.267Z,96161.59
2023-01-31T13:23:22.835Z,96165.63
2023-01-31T13:25:55.426Z,96161.18
2023-01-31T13:28:32.662Z,96160.92
2023-01-31T13:31:16.651Z,96165.64
2023-01-31T13:33:48.339Z,96169.30
2023-01-31T13:36:18.117Z,96167.74
2023-01-31T13:38:47.605Z,96167.46
2023-01-31T13:41:37.520Z,96167.98
2023-01-31T13:44:07.893Z,96173.47
2023-01-31T13:46:45.413Z,96171.44
2023-01-31T13:49:30.049Z,96175.26
2023-01-31T13:52:01.147Z,96172.36
2023-01-31T13:54:38.845Z,96168.08
2023-01-31T13:57:08.491Z,96171.67
2023-01-31T13:59:38.231Z,96171.09
2023-01-31T14:02:18.123Z,96170.30
2023-01-31T14:04:48.374Z,96170.10
2023-01-31T14:07:19.270Z,96168.88
2023-01-31T14:09:51.211Z,96178.34
2023-01-31T14:12:20.518Z,96177.55
2023-01-31T14:14:51.845Z,96168.60
2023-01-31T14:17:30.166Z,96168.45
2023-01-31T14:20:00.722Z,96172.63
2023-01-31T14:22:38.815Z,96177.94
2023-01-31T14:25:10.965Z,96179.88
2023-01-31T14:27:45.300Z,96187.40
2023-01-31T14:30:23.418Z,96193.76
2023-01-31T14:33:04.410Z,96200.23
2023-01-31T14:35:36.716Z,96202.02
2023-01-31T14:38:30.940Z,96199.95
2023-01-31T14:41:18.887Z,96204.12
2023-01-31T14:44:11.272Z,96208.02
2023-01-31T14:47:03.938Z,96211.09
2023-01-31T14:49:56.638Z,96216.58
2023-01-31T14:52:35.318Z,96218.55
2023-01-31T14:55:24.204Z,96220.91
2023-01-31T14:57:56.562Z,96223.73
2023-01-31T15:00:33.622Z,96225.98
2023-01-31T15:03:07.647Z,96228.01
2023-01-31T15:05:37.021Z,96230.56
2023-01-31T15:08:15.173Z,96235.98
2023-01-31T15:11:02.504Z,96230.17
2023-01-31T15:13:50.514Z,96237.94
2023-01-31T15:16:24.527Z,96239.58
2023-01-31T15:18:56.846Z,96242.21
2023-01-31T15:21:31.146Z,96238.77
2023-01-31T15:24:02.261Z,96244.55
2023-01-31T15:26:33.880Z,96247.14
2023-01-31T15:29:05.319Z,96246.86
2023-01-31T15:31:45.442Z,96250.31
2023-01-31T15:34:21.082Z,96248.08
2023-01-31T15:37:07.187Z,96249.42
2023-01-31T15:39:49.232Z,96254.82
2023-01-31T15:42:28.414Z,96258.05
2023-01-31T15:45:16.860Z,96258.73
2023-01-31T15:47:58.940Z,96264.98
2023-01-31T15:50:29.919Z,96259.38
2023-01-31T15:53:14.895Z,96261.07
2023-01-31T15:55:47.134Z,96257.52
2023-01-31T15:58:20.565Z,96260.20
2023-01-31T16:00:54.349Z,96260.14
2023-01-31T16:03:25.102Z,96260.80
2023-01-31T16:05:56.047Z,96266.02
2023-01-31T16:08:31.720Z,96270.20
2023-01-31T16:11:02.764Z,96272.45
2023-01-31T16:13:34.255Z,96276.14
2023-01-31T16:16:07.709Z,96273.52
2023-01-31T16:18:40.860Z,96273.44
2023-01-31T16:21:18.617Z,96273.44
2023-01-31T16:23:48.045Z,96279.20
2023-01-31T16:26:24.105Z,96282.18
2023-01-31T16:28:58.268Z,96284.13
2023-01-31T16:31:33.959Z,96280.66
2023-01-31T16:34:05.223Z,96280.59
2023-01-31T16:36:53.433Z,96282.42
2023-01-31T16:39:42.612Z,96280.55
2023-01-31T16:42:19.407Z,96280.33
2023-01-31T16:44:49.057Z,96283.71
2023-01-31T16:47:36.862Z,96284.22
2023-01-31T16:50:42.451Z,96290.48
2023-01-31T16:53:15.307Z,96286.13
2023-01-31T16:55:45.479Z,96288.26
2023-01-31T16:58:34.650Z,96293.38
2023-01-31T17:01:12.718Z,96286.77
2023-01-31T17:03:41.433Z,96288.35
2023-01-31T17:06:19.150Z,96285.59
2023-01-31T17:08:48.906Z,96286.09
2023-01-31T17:11:34.190Z,96285.64
2023-01-31T17:14:09.445Z,96286.77
2023-01-31T17:16:38.836Z,96287.75
2023-01-31T17:19:08.103Z,96285.84
2023-01-31T17:21:42.167Z,96285.67
2023-01-31T17:24:16.588Z,96289.44
2023-01-31T17:26:46.738Z,96294.90
2023-01-31T17:29:18.039Z,96294.98
2023-01-31T17:31:47.648Z,96290.13
2023-01-31T17:34:17.144Z,96291.07
2023-01-31T17:36:46.779Z,96290.48
2023-01-31T17:39:16.191Z,96289.11
2023-01-31T17:41:47.388Z,96286.27
2023-01-31T17:44:16.747Z,96289.11
2023-01-31T17:46:46.045Z,96297.98
2023-01-31T17:49:15.476Z,96299.20
2023-01-31T17:51:46.915Z,96301.67
2023-01-31T17:54:16.152Z,96296.67
2023-01-31T17:56:45.696Z,96299.23
2023-01-31T17:59:25.321Z,96303.88
2023-01-31T18:01:58.126Z,96300.13
2023-01-31T18:04:27.858Z,96292.00
2023-01-31T18:06:59.450Z,96302.61
2023-01-31T18:09:28.912Z,96310.27
2023-01-31T18:11:58.373Z,96307.38
2023-01-31T18:14:27.701Z,96310.27
2023-01-31T18:16:56.878Z,96305.91
2023-01-31T18:19:26.204Z,96311.29
2023-01-31T18:21:55.893Z,96306.05
2023-01-31T18:24:25.106Z,96308.12
2023-01-31T18:26:54.788Z,96310.03
2023-01-31T18:29:26.760Z,96307.89
2023-01-31T18:31:58.158Z,96300.56
2023-01-31T18:34:27.518Z,96302.79
2023-01-31T18:36:57.263Z,96302.86
2023-01-31T18:39:26.918Z,96302.03
2023-01-31T18:41:56.661Z,96302.23
2023-01-31T18:44:27.952Z,96300.74
2023-01-31T18:46:57.671Z,96302.77
2023-01-31T18:49:27.589Z,96300.73
2023-01-31T18:51:56.831Z,96302.05
2023-01-31T18:54:26.771Z,96308.05
2023-01-31T18:56:56.383Z,96306.05
2023-01-31T18:59:26.015Z,96311.16
2023-01-31T19:01:54.554Z,96310.41
2023-01-31T19:04:24.210Z,96312.70
2023-01-31T19:06:53.833Z,96310.92
2023-01-31T19:09:23.622Z,96317.26
2023-01-31T19:11:53.259Z,96313.73
2023-01-31T19:14:21.840Z,96316.34
2023-01-31T19:16:51.200Z,96323.80
2023-01-31T19:19:21.327Z,96320.44
2023-01-31T19:21:51.016Z,96320.21
2023-01-31T19:24:21.482Z,96323.65
2023-01-31T19:26:50.004Z,96323.98
2023-01-31T19:29:20.257Z,96323.48
2023-01-31T19:31:50.028Z,96325.50
2023-01-31T19:34:19.607Z,96328.66
2023-01-31T19:36:49.469Z,96330.38
2023-01-31T19:39:19.094Z,96328.20
2023-01-31T19:41:50.318Z,96329.02
2023-01-31T19:44:21.225Z,96334.09
2023-01-31T19:46:52.420Z,96330.98
2023-01-31T19:49:25.282Z,96328.39
2023-01-31T19:51:55.896Z,96328.50
2023-01-31T19:54:27.791Z,96324.33
2023-01-31T19:56:57.689Z,96320.92
2023-01-31T19:59:27.295Z,96324.27
2023-01-31T20:01:57.062Z,96324.88
2023-01-31T20:04:26.760Z,96326.09
2023-01-31T20:06:55.975Z,96327.23
2023-01-31T20:09:25.496Z,96324.71
2023-01-31T20:11:55.476Z,96327.77
2023-01-31T20:14:25.255Z,96328.98
2023-01-31T20:16:54.987Z,96334.14
2023-01-31T20:19:25.024Z,96335.55
2023-01-31T20:21:54.735Z,96337.74
2023-01-31T20:24:24.906Z,96342.07
2023-01-31T20:26:55.304Z,96341.71
2023-01-31T20:29:24.650Z,96348.27
2023-01-31T20:31:53.867Z,96350.64
2023-01-31T20:34:23.645Z,96352.55
2023-01-31T20:36:52.788Z,96352.73
2023-01-31T20:39:21.250Z,96354.55
2023-01-31T20:41:52.774Z,96353.20
2023-01-31T20:44:22.214Z,96349.74
2023-01-31T20:46:51.452Z,96355.31
2023-01-31T20:49:21.903Z,96351.62
2023-01-31T20:51:51.173Z,96345.31
2023-01-31T20:54:20.295Z,96339.83
2023-01-31T20:56:50.103Z,96338.66
2023-01-31T20:59:19.974Z,96338.17
2023-01-31T21:01:49.229Z,96339.09
2023-01-31T21:04:19.301Z,96335.94
2023-01-31T21:06:48.633Z,96330.08
2023-01-31T21:09:17.862Z,96326.11
2023-01-31T21:11:47.073Z,96326.90
2023-01-31T21:14:16.956Z,96323.83
2023-01-31T21:16:49.220Z,96320.64
2023-01-31T21:19:20.544Z,96322.09
2023-01-31T21:21:49.835Z,96322.21
2023-01-31T21:24:19.510Z,96320.64
2023-01-31T21:26:48.824Z,96321.75
2023-01-31T21:29:18.509Z,96315.69
2023-01-31T21:31:47.784Z,96313.73
2023-01-31T21:34:17.699Z,96304.02
2023-01-31T21:36:47.139Z,96311.36
2023-01-31T21:39:16.813Z,96311.57
2023-01-31T21:42:06.619Z,96308.60
2023-01-31T21:44:35.735Z,96312.82
2023-01-31T21:47:04.871Z,96306.17
2023-01-31T21:49:34.011Z,96307.22
2023-01-31T21:52:03.326Z,96304.52
2023-01-31T21:54:33.599Z,96304.36
2023-01-31T21:57:03.028Z,96302.03
2023-01-31T21:59:36.820Z,96298.80
2023-01-31T22:02:09.256Z,96296.80
2023-01-31T22:04:38.485Z,96297.31
2023-01-31T22:07:08.939Z,96293.20
2023-01-31T22:09:38.196Z,96290.66
2023-01-31T22:12:07.243Z,96290.89
2023-01-31T22:14:37.021Z,96290.81
2023-01-31T22:17:06.675Z,96287.48
2023-01-31T22:19:36.092Z,96286.42
2023-01-31T22:22:05.703Z,96282.29
2023-01-31T22:24:35.127Z,96276.84
2023-01-31T22:27:04.907Z,96275.50
2023-01-31T22:29:34.507Z,96278.38
2023-01-31T22:32:04.547Z,96277.08
2023-01-31T22:34:34.056Z,96275.14
2023-01-31T22:37:03.124Z,96272.38
2023-01-31T22:39:32.823Z,96274.58
2023-01-31T22:42:02.533Z,96268.55
2023-01-31T22:44:31.844Z,96263.64
2023-01-31T22:47:01.611Z,96261.71
2023-01-31T22:49:31.269Z,96257.80
2023-01-31T22:52:00.953Z,96264.09
2023-01-31T22:54:29.464Z,96257.63
2023-01-31T22:56:59.495Z,96265.61
2023-01-31T22:59:29.235Z,96259.02
2023-01-31T23:01:58.987Z,96261.04
2023-01-31T23:04:28.660Z,96259.54
2023-01-31T23:07:00.315Z,96251.83
2023-01-31T23:09:30.119Z,96250.39
2023-01-31T23:12:01.707Z,96248.23
2023-01-31T23:14:31.800Z,96243.52
2023-01-31T23:17:21.448Z,96241.59
2023-01-31T23:19:50.975Z,96233.20
2023-01-31T23:22:20.335Z,96233.69
2023-01-31T23:24:49.816Z,96226.20
2023-01-31T23:27:21.078Z,96221.86
2023-01-31T23:29:50.270Z,96220.20
2023-01-31T23:32:20.016Z,96219.02
2023-01-31T23:34:49.352Z,96221.95
2023-01-31T23:37:21.154Z,96220.39
2023-01-31T23:39:51.130Z,96226.73
2023-01-31T23:42:21.264Z,96230.14
2023-01-31T23:45:17.863Z,96227.05
2023-01-31T23:47:48.712Z,96231.14
2023-01-31T23:50:19.055Z,96232.27
2023-01-31T23:52:48.084Z,96237.15
2023-01-31T23:55:19.057Z,96231.95
2023-01-31T23:57:48.347Z,96235.00
